createdAt,value
2022-08-26T00:04:07.967Z,96920.00
2022-08-26T00:09:09.271Z,96919.00
2022-08-26T00:14:11.033Z,96922.00
2022-08-26T00:19:12.090Z,96922.00
2022-08-26T00:24:14.581Z,96925.00
2022-08-26T00:29:16.062Z,96916.00
2022-08-26T00:34:19.239Z,96919.00
2022-08-26T00:39:20.625Z,96911.00
2022-08-26T00:44:21.730Z,96919.00
2022-08-26T00:49:35.017Z,96910.00
2022-08-26T00:54:40.417Z,96912.00
2022-08-26T00:59:52.273Z,96916.00
2022-08-26T01:04:58.305Z,96911.00
2022-08-26T01:10:01.440Z,96910.00
2022-08-26T01:15:02.865Z,96909.00
2022-08-26T01:20:31.477Z,96903.00
2022-08-26T01:25:38.334Z,96909.00
2022-08-26T01:30:41.381Z,96909.00
2022-08-26T01:35:44.154Z,96908.00
2022-08-26T01:40:46.260Z,96906.00
2022-08-26T01:45:48.658Z,96911.00
2022-08-26T01:50:51.249Z,96911.00
2022-08-26T01:55:56.400Z,96915.00
2022-08-26T02:00:58.128Z,96915.00
2022-08-26T02:06:03.735Z,96920.00
2022-08-26T02:11:06.020Z,96917.00
2022-08-26T02:16:08.498Z,96913.00
2022-08-26T02:21:11.313Z,96925.00
2022-08-26T02:26:18.057Z,96918.00
2022-08-26T02:31:20.247Z,96918.00
2022-08-26T02:36:28.450Z,96930.00
2022-08-26T02:41:29.853Z,96929.00
2022-08-26T02:46:33.967Z,96921.00
2022-08-26T02:51:35.687Z,96930.00
2022-08-26T02:56:36.647Z,96928.00
2022-08-26T03:01:39.737Z,96915.00
2022-08-26T03:06:41.622Z,96917.00
2022-08-26T03:11:42.621Z,96915.00
2022-08-26T03:16:44.611Z,96910.00
2022-08-26T03:21:51.611Z,96908.00
2022-08-26T03:26:53.295Z,96908.00
2022-08-26T03:31:54.678Z,96910.00
2022-08-26T03:36:55.531Z,96909.00
2022-08-26T03:41:58.247Z,96903.00
2022-08-26T03:46:59.107Z,96912.00
2022-08-26T03:52:00.020Z,96903.00
2022-08-26T03:57:01.333Z,96901.00
2022-08-26T04:02:02.337Z,96899.00
2022-08-26T04:07:03.529Z,96892.00
2022-08-26T04:12:05.265Z,96887.00
2022-08-26T04:17:06.128Z,96894.00
2022-08-26T04:22:07.774Z,96890.00
2022-08-26T04:27:09.658Z,96884.00
2022-08-26T04:32:10.493Z,96887.00
2022-08-26T04:37:12.506Z,96885.00
2022-08-26T04:42:14.934Z,96889.00
2022-08-26T04:47:16.011Z,96888.00
2022-08-26T04:52:17.108Z,96888.00
2022-08-26T04:57:17.911Z,96891.00
2022-08-26T05:02:18.800Z,96892.00
2022-08-26T05:07:19.929Z,96903.00
2022-08-26T05:12:20.870Z,96905.00
2022-08-26T05:17:22.248Z,96903.00
2022-08-26T05:22:23.146Z,96905.00
2022-08-26T05:27:23.943Z,96904.00
2022-08-26T05:32:24.995Z,96906.00
2022-08-26T05:37:25.844Z,96917.00
2022-08-26T05:42:27.244Z,96920.00
2022-08-26T05:47:29.230Z,96918.00
2022-08-26T05:52:31.724Z,96925.00
2022-08-26T05:57:33.902Z,96935.00
2022-08-26T06:02:38.291Z,96925.00
2022-08-26T06:07:57.757Z,96925.00
2022-08-26T06:13:09.198Z,96928.00
2022-08-26T06:18:14.531Z,96936.00
2022-08-26T06:23:34.748Z,96928.00
2022-08-26T06:28:35.643Z,96935.00
2022-08-26T06:33:37.978Z,96944.00
2022-08-26T06:38:41.125Z,96938.00
2022-08-26T06:43:43.064Z,96946.00
2022-08-26T06:48:44.223Z,96942.00
2022-08-26T06:53:47.416Z,96944.00
2022-08-26T06:58:49.753Z,96931.00
2022-08-26T07:03:52.533Z,96936.00
2022-08-26T07:09:03.383Z,96941.00
2022-08-26T07:14:05.357Z,96939.00
2022-08-26T07:19:11.223Z,96948.00
2022-08-26T07:24:12.512Z,96951.00
2022-08-26T07:29:14.145Z,96942.00
2022-08-26T07:34:16.387Z,96950.00
2022-08-26T07:39:19.291Z,96956.00
2022-08-26T07:44:21.198Z,96962.00
2022-08-26T07:49:23.710Z,96967.00
2022-08-26T07:54:26.814Z,96964.00
2022-08-26T07:59:28.100Z,96978.00
2022-08-26T08:04:31.843Z,96986.00
2022-08-26T08:09:32.735Z,96988.00
2022-08-26T08:14:35.732Z,96983.00
2022-08-26T08:19:39.190Z,96982.00
2022-08-26T08:24:40.222Z,96986.00
2022-08-26T08:29:41.072Z,96992.00
2022-08-26T08:39:42.777Z,97000.00
2022-08-26T08:44:52.262Z,96997.00
2022-08-26T08:49:59.345Z,96995.00
2022-08-26T08:55:01.827Z,96995.00
2022-08-26T09:00:13.316Z,96989.00
2022-08-26T09:05:27.740Z,96986.00
2022-08-26T09:10:36.371Z,96992.00
2022-08-26T09:16:19.210Z,96986.00
2022-08-26T09:21:22.902Z,96981.00
2022-08-26T09:26:44.570Z,96984.00
2022-08-26T09:31:45.733Z,96985.00
2022-08-26T09:36:48.861Z,96997.00
2022-08-26T09:42:20.078Z,96995.00
2022-08-26T09:47:25.894Z,96992.00
2022-08-26T09:52:27.062Z,96989.00
2022-08-26T09:57:32.441Z,96983.00
2022-08-26T10:02:40.798Z,96975.00
2022-08-26T10:07:50.445Z,96973.00
2022-08-26T10:13:05.966Z,96968.00
2022-08-26T10:18:23.876Z,96968.00
2022-08-26T10:23:28.606Z,96964.00
2022-08-26T10:28:45.664Z,96955.00
2022-08-26T10:33:46.599Z,96947.00
2022-08-26T10:38:47.990Z,96939.00
2022-08-26T10:43:56.177Z,96942.00
2022-08-26T10:49:04.559Z,96927.00
2022-08-26T10:54:19.067Z,96926.00
2022-08-26T11:00:28.905Z,96928.00
2022-08-26T11:05:29.948Z,96917.00
2022-08-26T11:11:04.387Z,96921.00
2022-08-26T11:16:07.485Z,96911.00
2022-08-26T11:23:50.332Z,96909.00
2022-08-26T11:28:52.549Z,96912.00
2022-08-26T11:33:59.488Z,96906.00
2022-08-26T11:39:20.592Z,96902.00
2022-08-26T11:44:23.520Z,96893.00
2022-08-26T11:49:28.204Z,96893.00
2022-08-26T11:54:35.718Z,96894.00
2022-08-26T11:59:40.035Z,96898.00
2022-08-26T12:04:48.866Z,96896.00
2022-08-26T12:09:54.416Z,96891.00
2022-08-26T12:15:18.357Z,96889.00
2022-08-26T12:20:47.412Z,96880.00
2022-08-26T12:25:51.165Z,96866.00
2022-08-26T12:31:04.366Z,96864.00
2022-08-26T12:36:06.038Z,96861.00
2022-08-26T12:41:06.990Z,96863.00
2022-08-26T12:46:15.553Z,96866.00
2022-08-26T12:51:24.900Z,96861.00
2022-08-26T12:57:08.048Z,96866.00
2022-08-26T13:02:09.594Z,96859.00
2022-08-26T13:07:28.732Z,96861.00
2022-08-26T13:12:32.769Z,96855.00
2022-08-26T13:17:35.114Z,96863.00
2022-08-26T13:22:36.678Z,96856.00
2022-08-26T13:27:38.181Z,96859.00
2022-08-26T13:32:39.060Z,96845.00
2022-08-26T13:37:40.008Z,96847.00
2022-08-26T13:42:49.486Z,96834.00
2022-08-26T13:47:51.247Z,96834.00
2022-08-26T13:52:52.751Z,96836.00
2022-08-26T13:57:55.004Z,96835.00
2022-08-26T14:02:56.023Z,96841.00
2022-08-26T14:07:57.269Z,96845.00
2022-08-26T14:12:58.848Z,96850.00
2022-08-26T14:18:02.302Z,96851.00
2022-08-26T14:23:13.655Z,96857.00
2022-08-26T14:28:15.727Z,96855.00
2022-08-26T14:33:19.372Z,96852.00
2022-08-26T14:38:20.662Z,96850.00
2022-08-26T14:43:21.556Z,96832.00
2022-08-26T14:48:22.473Z,96834.00
2022-08-26T14:53:41.465Z,96856.00
2022-08-26T14:58:43.233Z,96857.00
2022-08-26T15:03:44.321Z,96857.00
2022-08-26T15:08:45.187Z,96870.00
2022-08-26T15:13:46.569Z,96870.00
2022-08-26T15:18:48.587Z,96879.00
2022-08-26T15:23:51.655Z,96873.00
2022-08-26T15:28:52.695Z,96887.00
2022-08-26T15:33:55.619Z,96887.00
2022-08-26T15:38:59.219Z,96887.00
2022-08-26T15:44:01.192Z,96889.00
2022-08-26T15:49:05.338Z,96872.00
2022-08-26T15:54:10.276Z,96874.00
2022-08-26T15:59:11.645Z,96881.00
2022-08-26T16:04:13.818Z,96873.00
2022-08-26T16:09:15.421Z,96878.00
2022-08-26T16:14:16.310Z,96863.00
2022-08-26T16:19:17.599Z,96860.00
2022-08-26T16:24:27.118Z,96873.00
2022-08-26T16:29:31.825Z,96874.00
2022-08-26T16:34:32.654Z,96891.00
2022-08-26T16:39:33.514Z,96884.00
2022-08-26T16:44:43.814Z,96889.00
2022-08-26T16:49:45.932Z,96900.00
2022-08-26T16:54:46.822Z,96899.00
2022-08-26T16:59:47.892Z,96897.00
2022-08-26T17:04:50.224Z,96901.00
2022-08-26T17:09:51.349Z,96884.00
2022-08-26T17:14:52.132Z,96884.00
2022-08-26T17:19:53.407Z,96867.00
2022-08-26T17:24:54.215Z,96879.00
2022-08-26T17:29:55.547Z,96867.00
2022-08-26T17:34:57.074Z,96876.00
2022-08-26T17:39:58.025Z,96873.00
2022-08-26T17:44:59.055Z,96868.00
2022-08-26T17:50:03.784Z,96878.00
2022-08-26T17:55:06.392Z,96871.00
2022-08-26T18:00:11.998Z,96894.00
2022-08-26T18:05:14.713Z,96881.00
2022-08-26T18:10:16.952Z,96878.00
2022-08-26T18:15:18.335Z,96878.00
2022-08-26T18:20:19.726Z,96871.00
2022-08-26T18:25:20.824Z,96872.00
2022-08-26T18:30:21.993Z,96876.00
2022-08-26T18:35:27.523Z,96863.00
2022-08-26T18:40:28.433Z,96863.00
2022-08-26T18:45:29.609Z,96867.00
2022-08-26T18:50:30.469Z,96865.00
2022-08-26T18:55:31.498Z,96874.00
2022-08-26T19:00:32.495Z,96873.00
2022-08-26T19:05:39.561Z,96877.00
2022-08-26T19:10:40.799Z,96883.00
2022-08-26T19:15:43.750Z,96901.00
2022-08-26T19:20:46.857Z,96898.00
2022-08-26T19:25:51.370Z,96916.00
2022-08-26T19:30:53.247Z,96917.00
2022-08-26T19:35:54.938Z,96936.00
2022-08-26T19:40:55.821Z,96946.00
2022-08-26T19:45:56.942Z,96943.00
2022-08-26T19:50:58.478Z,96951.00
2022-08-26T19:55:59.399Z,96955.00
2022-08-26T20:01:00.407Z,96966.00
2022-08-26T20:06:07.497Z,96961.00
2022-08-26T20:11:11.745Z,96962.00
2022-08-26T20:16:14.725Z,96970.00
2022-08-26T20:21:28.386Z,96973.00
2022-08-26T20:26:33.958Z,96980.00
2022-08-26T20:31:35.540Z,96983.00
2022-08-26T20:36:38.282Z,96990.00
2022-08-26T20:41:39.892Z,96994.00
2022-08-26T20:46:40.763Z,96998.00
2022-08-26T20:51:44.727Z,96998.00
2022-08-26T20:56:46.658Z,97008.00
2022-08-26T21:01:48.375Z,97009.00
2022-08-26T21:06:52.814Z,97012.00
2022-08-26T21:11:54.427Z,97013.00
2022-08-26T21:16:55.306Z,97005.00
2022-08-26T21:21:56.136Z,96992.00
2022-08-26T21:26:57.468Z,96992.00
2022-08-26T21:31:58.592Z,96983.00
2022-08-26T21:36:59.771Z,96986.00
2022-08-26T21:42:00.960Z,96988.00
2022-08-26T21:47:04.078Z,97004.00
2022-08-26T21:52:05.433Z,97000.00
2022-08-26T21:57:06.555Z,96998.00
2022-08-26T22:02:07.610Z,96982.00
2022-08-26T22:07:08.516Z,97001.00
2022-08-26T22:12:11.194Z,96995.00
2022-08-26T22:17:12.303Z,97004.00
2022-08-26T22:22:14.049Z,97007.00
2022-08-26T22:27:14.876Z,97012.00
2022-08-26T22:32:17.824Z,97014.00
2022-08-26T22:37:18.625Z,97017.00
2022-08-26T22:42:19.515Z,97020.00
2022-08-26T22:47:20.375Z,97021.00
2022-08-26T22:52:21.242Z,97026.00
2022-08-26T22:57:22.094Z,97023.00
2022-08-26T23:02:23.499Z,97032.00
2022-08-26T23:07:24.373Z,97016.00
2022-08-26T23:12:27.037Z,97023.00
2022-08-26T23:17:27.865Z,97023.00
2022-08-26T23:22:28.724Z,97019.00
2022-08-26T23:27:29.585Z,97024.00
2022-08-26T23:32:30.730Z,97017.00
2022-08-26T23:37:38.187Z,97010.00
2022-08-26T23:42:41.464Z,97008.00
2022-08-26T23:47:42.303Z,97011.00
2022-08-26T23:53:01.509Z,97006.00
2022-08-26T23:58:03.001Z,97009.00
